Maersk Wakamatsu — 3EZG — position and weather

sailwx.info

Track history (hours):
 
Tides and Currents Weather Stations Pressure Air Temp Water Temp Dewpoint Dewpoint Depression Visibility Wind Speed Wind Dir Waves Ship Positions

Maersk Wakamatsu

Last reported at 2016-Sep-20 17:33 UTC. Time now 2016-Sep-26 07:03 UTC.
Position N 10°31' W 061°41'.

Length 172 m; draft 6.6 m.

Type: Cargo ship. MMSI: 370484000.

Date/timePositionNaut miles runAvg speedWind from/ knotsBaromVisibWave heightAir tempDewpointWater temp
2016-Sep-20 17:33N 10°31' W 061°41'13 4.1
2016-Sep-20 14:32N 10°24' W 061°30'0 0.0
2016-Sep-20 13:32N 10°24' W 061°30'0 0.0
2016-Sep-20 10:32N 10°24' W 061°30'0 0.0
2016-Sep-20 08:32N 10°24' W 061°30'0 0.0
2016-Sep-20 07:32N 10°24' W 061°30'0 0.0
2016-Sep-20 06:32N 10°24' W 061°30'0 0.0
2016-Sep-20 02:32N 10°24' W 061°30'0 0.0
2016-Sep-19 23:32N 10°24' W 061°30'7 1.9
2016-Sep-19 19:33N 10°27' W 061°37'1818.1
2016-Sep-19 18:33N 10°43' W 061°46'29 7.3
2016-Sep-19 14:33N 10°55' W 061°19'  
2016-Sep-14 07:30N 10°56' W 061°17'1110.2
2016-Sep-14 06:28N 10°55' W 061°28'25 8.4
2016-Sep-14 03:33N 10°36' W 061°44'19 3.7
2016-Sep-13 22:31N 10°24' W 061°30'0 0.0
2016-Sep-13 20:31N 10°24' W 061°30'0 0.0
2016-Sep-13 18:31N 10°24' W 061°30'0 0.0
2016-Sep-13 17:31N 10°24' W 061°30'0 0.0
2016-Sep-13 16:31N 10°24' W 061°30'0 0.0
2016-Sep-13 11:33N 10°24' W 061°30'2110.6
2016-Sep-13 09:33N 10°37' W 061°47'  
Track history (hours):
 
Tides and Currents Weather Stations Pressure Air Temp Water Temp Dewpoint Dewpoint Depression Visibility Wind Speed Wind Dir Waves Ship Positions

Maersk Wakamatsu

Last reported at 2016-Sep-20 17:33 UTC. Time now 2016-Sep-26 07:03 UTC.
Position N 10°31' W 061°41'.

Length 172 m; draft 6.6 m.

Type: Cargo ship. MMSI: 370484000.

Date/timePositionNaut miles runAvg speedWind from/ knotsBaromVisibWave heightAir tempDewpointWater temp
2016-Sep-20 17:33N 10°31' W 061°41'13 4.1
2016-Sep-20 14:32N 10°24' W 061°30'0 0.0
2016-Sep-20 13:32N 10°24' W 061°30'0 0.0
2016-Sep-20 10:32N 10°24' W 061°30'0 0.0
2016-Sep-20 08:32N 10°24' W 061°30'0 0.0
2016-Sep-20 07:32N 10°24' W 061°30'0 0.0
2016-Sep-20 06:32N 10°24' W 061°30'0 0.0
2016-Sep-20 02:32N 10°24' W 061°30'0 0.0
2016-Sep-19 23:32N 10°24' W 061°30'7 1.9
2016-Sep-19 19:33N 10°27' W 061°37'1818.1
2016-Sep-19 18:33N 10°43' W 061°46'29 7.3
2016-Sep-19 14:33N 10°55' W 061°19'  
2016-Sep-14 07:30N 10°56' W 061°17'1110.2
2016-Sep-14 06:28N 10°55' W 061°28'25 8.4
2016-Sep-14 03:33N 10°36' W 061°44'19 3.7
2016-Sep-13 22:31N 10°24' W 061°30'0 0.0
2016-Sep-13 20:31N 10°24' W 061°30'0 0.0
2016-Sep-13 18:31N 10°24' W 061°30'0 0.0
2016-Sep-13 17:31N 10°24' W 061°30'0 0.0
2016-Sep-13 16:31N 10°24' W 061°30'0 0.0
2016-Sep-13 11:33N 10°24' W 061°30'2110.6
2016-Sep-13 09:33N 10°37' W 061°47'  

Dump ship's entire track history